createdAt,value
2023-02-11T00:01:07.595Z,19.07
2023-02-11T00:03:40.710Z,19.07
2023-02-11T00:06:13.577Z,19.06
2023-02-11T00:08:46.592Z,19.05
2023-02-11T00:11:19.752Z,19.05
2023-02-11T00:13:52.824Z,19.04
2023-02-11T00:16:25.748Z,19.04
2023-02-11T00:18:58.701Z,19.04
2023-02-11T00:21:32.037Z,19.03
2023-02-11T00:24:05.640Z,19.02
2023-02-11T00:26:38.594Z,19.02
2023-02-11T00:29:11.772Z,19.02
2023-02-11T00:31:44.619Z,19.01
2023-02-11T00:34:17.791Z,19.01
2023-02-11T00:36:50.661Z,19.00
2023-02-11T00:39:23.631Z,19.00
2023-02-11T00:41:56.588Z,19.00
2023-02-11T00:44:29.632Z,18.99
2023-02-11T00:47:02.522Z,18.99
2023-02-11T00:49:35.770Z,18.98
2023-02-11T00:52:08.812Z,18.98
2023-02-11T00:54:41.577Z,18.98
2023-02-11T00:57:14.539Z,18.97
2023-02-11T00:59:47.974Z,18.96
2023-02-11T01:02:21.883Z,18.96
2023-02-11T01:04:55.193Z,18.96
2023-02-11T01:07:28.717Z,18.95
2023-02-11T01:10:01.699Z,18.95
2023-02-11T01:12:36.486Z,18.94
2023-02-11T01:15:08.578Z,18.94
2023-02-11T01:17:41.670Z,18.94
2023-02-11T01:20:14.553Z,18.94
2023-02-11T01:22:47.782Z,18.93
2023-02-11T01:25:20.697Z,18.93
2023-02-11T01:27:53.812Z,18.93
2023-02-11T01:30:26.781Z,18.93
2023-02-11T01:32:59.760Z,18.93
2023-02-11T01:38:22.633Z,18.93
2023-02-11T01:40:55.961Z,18.92
2023-02-11T01:43:28.692Z,18.92
2023-02-11T01:46:08.073Z,18.92
2023-02-11T01:48:41.822Z,18.92
2023-02-11T01:51:14.634Z,18.92
2023-02-11T01:53:47.992Z,18.92
2023-02-11T01:56:20.617Z,18.92
2023-02-11T01:58:54.032Z,18.91
2023-02-11T02:01:26.830Z,18.91
2023-02-11T02:04:00.053Z,18.91
2023-02-11T02:06:33.024Z,18.90
2023-02-11T02:09:05.851Z,18.90
2023-02-11T02:11:38.925Z,18.90
2023-02-11T02:14:11.851Z,18.89
2023-02-11T02:16:44.793Z,18.88
2023-02-11T02:19:17.659Z,18.88
2023-02-11T02:21:50.789Z,18.87
2023-02-11T02:24:24.179Z,18.87
2023-02-11T02:26:58.036Z,18.86
2023-02-11T02:29:30.793Z,18.86
2023-02-11T02:32:04.026Z,18.86
2023-02-11T02:34:37.025Z,18.85
2023-02-11T02:37:09.670Z,18.85
2023-02-11T02:39:42.707Z,18.85
2023-02-11T02:42:15.701Z,18.84
2023-02-11T02:44:49.111Z,18.84
2023-02-11T02:47:22.070Z,18.84
2023-02-11T02:49:55.045Z,18.84
2023-02-11T02:52:28.012Z,18.83
2023-02-11T02:55:01.337Z,18.83
2023-02-11T02:57:34.823Z,18.83
2023-02-11T03:00:08.058Z,18.83
2023-02-11T03:02:40.818Z,18.83
2023-02-11T03:05:14.071Z,18.82
2023-02-11T03:07:47.075Z,18.82
2023-02-11T03:10:19.904Z,18.82
2023-02-11T03:12:52.920Z,18.81
2023-02-11T03:15:27.236Z,18.81
2023-02-11T03:18:01.068Z,18.80
2023-02-11T03:20:34.103Z,18.80
2023-02-11T03:23:07.120Z,18.80
2023-02-11T03:25:39.922Z,18.79
2023-02-11T03:28:13.117Z,18.79
2023-02-11T03:30:45.784Z,18.79
2023-02-11T03:33:18.861Z,18.79
2023-02-11T03:35:52.387Z,18.78
2023-02-11T03:38:25.359Z,18.78
2023-02-11T03:40:59.070Z,18.78
2023-02-11T03:43:32.117Z,18.77
2023-02-11T03:46:05.287Z,18.77
2023-02-11T03:48:39.063Z,18.77
2023-02-11T03:51:12.099Z,18.76
2023-02-11T03:53:44.969Z,18.76
2023-02-11T03:56:17.853Z,18.75
2023-02-11T03:58:54.034Z,18.75
2023-02-11T04:01:27.294Z,18.75
2023-02-11T04:03:59.889Z,18.74
2023-02-11T04:06:33.137Z,18.74
2023-02-11T04:09:05.963Z,18.74
2023-02-11T04:11:39.281Z,18.73
2023-02-11T04:14:11.845Z,18.73
2023-02-11T04:16:45.318Z,18.72
2023-02-11T04:19:18.058Z,18.72
2023-02-11T04:21:50.955Z,18.71
2023-02-11T04:24:23.846Z,18.71
2023-02-11T04:26:57.126Z,18.71
2023-02-11T04:29:32.161Z,18.70
2023-02-11T04:32:05.001Z,18.70
2023-02-11T04:34:38.230Z,18.70
2023-02-11T04:37:10.900Z,18.70
2023-02-11T04:39:44.029Z,18.70
2023-02-11T04:42:17.328Z,18.70
2023-02-11T04:44:50.291Z,18.69
2023-02-11T04:47:23.058Z,18.69
2023-02-11T04:49:56.152Z,18.69
2023-02-11T04:52:28.923Z,18.69
2023-02-11T04:55:02.043Z,18.69
2023-02-11T04:57:35.095Z,18.69
2023-02-11T05:00:07.986Z,18.69
2023-02-11T05:02:41.106Z,18.68
2023-02-11T05:05:14.300Z,18.68
2023-02-11T05:07:47.331Z,18.68
2023-02-11T05:10:20.322Z,18.68
2023-02-11T05:12:55.701Z,18.67
2023-02-11T05:15:27.067Z,18.67
2023-02-11T05:18:00.059Z,18.67
2023-02-11T05:20:33.294Z,18.67
2023-02-11T05:23:06.230Z,18.67
2023-02-11T05:25:39.181Z,18.66
2023-02-11T05:28:12.355Z,18.66
2023-02-11T05:30:45.262Z,18.66
2023-02-11T05:33:18.236Z,18.66
2023-02-11T05:35:51.558Z,18.66
2023-02-11T05:38:24.144Z,18.66
2023-02-11T05:40:57.497Z,18.66
2023-02-11T05:43:31.326Z,18.66
2023-02-11T05:46:04.123Z,18.65
2023-02-11T05:48:37.090Z,18.65
2023-02-11T05:51:10.307Z,18.65
2023-02-11T05:53:43.262Z,18.65
2023-02-11T05:56:16.098Z,18.65
2023-02-11T05:58:49.052Z,18.64
2023-02-11T06:01:22.389Z,18.64
2023-02-11T06:03:55.330Z,18.64
2023-02-11T06:06:28.357Z,18.64
2023-02-11T06:09:01.171Z,18.63
2023-02-11T06:11:34.389Z,18.63
2023-02-11T06:14:07.056Z,18.63
2023-02-11T06:16:40.453Z,18.63
2023-02-11T06:19:13.027Z,18.62
2023-02-11T06:21:46.330Z,18.62
2023-02-11T06:24:38.418Z,18.62
2023-02-11T06:26:52.085Z,18.61
2023-02-11T06:29:25.351Z,18.61
2023-02-11T06:31:58.488Z,18.61
2023-02-11T06:34:31.232Z,18.61
2023-02-11T06:37:04.219Z,18.61
2023-02-11T06:39:37.087Z,18.60
2023-02-11T06:42:10.068Z,18.60
2023-02-11T06:44:43.495Z,18.60
2023-02-11T06:47:16.075Z,18.60
2023-02-11T06:49:49.646Z,18.60
2023-02-11T06:52:23.205Z,18.60
2023-02-11T06:54:56.393Z,18.60
2023-02-11T06:57:29.334Z,18.60
2023-02-11T07:00:02.476Z,18.60
2023-02-11T07:02:35.314Z,18.60
2023-02-11T07:05:08.166Z,18.60
2023-02-11T07:07:41.134Z,18.60
2023-02-11T07:10:14.268Z,18.60
2023-02-11T07:12:47.097Z,18.60
2023-02-11T07:15:20.592Z,18.60
2023-02-11T07:17:53.658Z,18.60
2023-02-11T07:20:27.341Z,18.60
2023-02-11T07:23:00.265Z,18.60
2023-02-11T07:25:33.138Z,18.60
2023-02-11T07:28:06.348Z,18.60
2023-02-11T07:30:39.342Z,18.61
2023-02-11T07:33:12.150Z,18.61
2023-02-11T07:35:45.333Z,18.62
2023-02-11T07:38:18.306Z,18.62
2023-02-11T07:40:51.388Z,18.63
2023-02-11T07:43:24.332Z,18.63
2023-02-11T07:45:57.374Z,18.63
2023-02-11T07:48:30.373Z,18.64
2023-02-11T07:51:03.269Z,18.64
2023-02-11T07:53:36.287Z,18.65
2023-02-11T07:56:09.161Z,18.65
2023-02-11T07:58:42.278Z,18.65
2023-02-11T08:01:15.698Z,18.64
2023-02-11T08:03:48.209Z,18.63
2023-02-11T08:06:21.568Z,18.62
2023-02-11T08:08:54.551Z,18.61
2023-02-11T08:11:27.247Z,18.60
2023-02-11T08:14:00.478Z,18.60
2023-02-11T08:16:33.270Z,18.60
2023-02-11T08:19:06.780Z,18.61
2023-02-11T08:21:40.392Z,18.62
2023-02-11T08:24:13.200Z,18.64
2023-02-11T08:26:46.487Z,18.66
2023-02-11T08:29:19.525Z,18.68
2023-02-11T08:31:52.627Z,18.70
2023-02-11T08:34:25.668Z,18.72
2023-02-11T08:36:59.541Z,18.74
2023-02-11T08:39:32.501Z,18.76
2023-02-11T08:42:05.626Z,18.77
2023-02-11T08:44:38.507Z,18.79
2023-02-11T08:47:11.561Z,18.81
2023-02-11T08:49:44.259Z,18.82
2023-02-11T08:52:17.675Z,18.84
2023-02-11T08:54:51.335Z,18.86
2023-02-11T08:57:24.696Z,18.87
2023-02-11T08:59:58.559Z,18.89
2023-02-11T09:02:31.750Z,18.91
2023-02-11T09:05:05.297Z,18.92
2023-02-11T09:07:38.400Z,18.94
2023-02-11T09:10:11.416Z,18.95
2023-02-11T09:12:44.803Z,18.96
2023-02-11T09:15:18.741Z,18.97
2023-02-11T09:17:52.671Z,18.99
2023-02-11T09:20:25.622Z,19.00
2023-02-11T09:22:58.639Z,19.02
2023-02-11T09:25:31.922Z,19.03
2023-02-11T09:28:05.762Z,19.04
2023-02-11T09:30:38.396Z,19.05
2023-02-11T09:33:11.778Z,19.06
2023-02-11T09:35:45.459Z,19.07
2023-02-11T09:38:18.688Z,19.08
2023-02-11T09:40:51.810Z,19.08
2023-02-11T09:43:24.655Z,19.09
2023-02-11T09:45:57.664Z,19.10
2023-02-11T09:48:30.822Z,19.10
2023-02-11T09:51:04.753Z,19.11
2023-02-11T09:53:38.698Z,19.11
2023-02-11T09:56:11.693Z,19.12
2023-02-11T09:58:44.754Z,19.12
2023-02-11T10:01:20.949Z,19.13
2023-02-11T10:03:51.554Z,19.14
2023-02-11T10:06:24.940Z,19.14
2023-02-11T10:08:58.695Z,19.15
2023-02-11T10:11:32.525Z,19.16
2023-02-11T10:14:05.754Z,19.16
2023-02-11T10:16:38.850Z,19.17
2023-02-11T10:19:12.697Z,19.17
2023-02-11T10:21:45.881Z,19.17
2023-02-11T10:24:19.736Z,19.18
2023-02-11T10:26:52.459Z,19.18
2023-02-11T10:29:25.459Z,19.18
2023-02-11T10:31:58.633Z,19.19
2023-02-11T10:34:31.780Z,19.19
2023-02-11T10:37:04.827Z,19.19
2023-02-11T10:39:37.723Z,19.19
2023-02-11T10:42:10.756Z,19.19
2023-02-11T10:44:43.430Z,19.19
2023-02-11T10:47:16.739Z,19.20
2023-02-11T10:49:49.745Z,19.20
2023-02-11T10:52:22.512Z,19.20
2023-02-11T10:54:55.709Z,19.19
2023-02-11T10:57:28.652Z,19.18
2023-02-11T11:00:01.802Z,19.17
2023-02-11T11:02:34.791Z,19.16
2023-02-11T11:05:07.839Z,19.15
2023-02-11T11:07:40.488Z,19.15
2023-02-11T11:10:13.744Z,19.15
2023-02-11T11:12:46.860Z,19.15
2023-02-11T11:15:19.466Z,19.15
2023-02-11T11:17:52.737Z,19.16
2023-02-11T11:20:25.841Z,19.17
2023-02-11T11:22:58.492Z,19.18
2023-02-11T11:25:31.650Z,19.19
2023-02-11T11:28:04.712Z,19.20
2023-02-11T11:30:37.604Z,19.21
2023-02-11T11:33:10.772Z,19.21
2023-02-11T11:35:43.890Z,19.22
2023-02-11T11:38:16.793Z,19.22
2023-02-11T11:40:50.141Z,19.22
2023-02-11T11:43:23.453Z,19.23
2023-02-11T11:45:55.552Z,19.23
2023-02-11T11:48:28.550Z,19.24
2023-02-11T11:51:01.965Z,19.25
2023-02-11T11:53:34.925Z,19.25
2023-02-11T11:56:07.904Z,19.25
2023-02-11T11:58:41.090Z,19.26
2023-02-11T12:01:14.050Z,19.26
2023-02-11T12:03:47.894Z,19.26
2023-02-11T12:06:20.949Z,19.26
2023-02-11T12:08:53.614Z,19.27
2023-02-11T12:11:26.708Z,19.27
2023-02-11T12:13:59.593Z,19.28
2023-02-11T12:16:32.773Z,19.28
2023-02-11T12:19:05.763Z,19.29
2023-02-11T12:21:38.810Z,19.30
2023-02-11T12:24:11.565Z,19.30
2023-02-11T12:26:44.829Z,19.31
2023-02-11T12:29:17.573Z,19.31
2023-02-11T12:31:50.684Z,19.32
2023-02-11T12:34:24.020Z,19.32
2023-02-11T12:36:56.847Z,19.33
2023-02-11T12:39:29.718Z,19.33
2023-02-11T12:42:02.941Z,19.34
2023-02-11T12:44:36.029Z,19.34
2023-02-11T12:47:09.032Z,19.35
2023-02-11T12:49:41.793Z,19.35
2023-02-11T12:52:14.788Z,19.35
2023-02-11T12:54:47.958Z,19.35
2023-02-11T12:57:20.830Z,19.35
2023-02-11T12:59:54.133Z,19.35
2023-02-11T13:02:27.879Z,19.36
2023-02-11T13:05:00.669Z,19.36
2023-02-11T13:07:34.115Z,19.36
2023-02-11T13:10:08.031Z,19.36
2023-02-11T13:12:40.961Z,19.37
2023-02-11T13:15:13.923Z,19.37
2023-02-11T13:18:00.596Z,19.37
2023-02-11T13:20:33.758Z,19.38
2023-02-11T13:23:06.794Z,19.38
2023-02-11T13:25:39.872Z,19.38
2023-02-11T13:28:12.673Z,19.38
2023-02-11T13:30:46.309Z,19.38
2023-02-11T13:33:20.023Z,19.38
2023-02-11T13:35:53.073Z,19.38
2023-02-11T13:38:25.944Z,19.39
2023-02-11T13:40:58.734Z,19.40
2023-02-11T13:43:31.914Z,19.40
2023-02-11T13:46:04.963Z,19.40
2023-02-11T13:48:37.831Z,19.40
2023-02-11T13:51:10.740Z,19.40
2023-02-11T13:53:44.017Z,19.40
2023-02-11T13:56:16.701Z,19.41
2023-02-11T13:58:50.043Z,19.41
2023-02-11T14:01:22.928Z,19.41
2023-02-11T14:03:55.797Z,19.41
2023-02-11T14:06:29.084Z,19.42
2023-02-11T14:09:02.032Z,19.42
2023-02-11T14:11:34.966Z,19.42
2023-02-11T14:14:07.854Z,19.43
2023-02-11T14:16:41.006Z,19.43
2023-02-11T14:19:14.087Z,19.44
2023-02-11T14:21:46.871Z,19.44
2023-02-11T14:24:19.797Z,19.44
2023-02-11T14:26:52.789Z,19.44
2023-02-11T14:29:26.081Z,19.44
2023-02-11T14:31:59.082Z,19.44
2023-02-11T14:34:31.768Z,19.44
2023-02-11T14:37:04.790Z,19.44
2023-02-11T14:39:37.855Z,19.45
2023-02-11T14:42:10.808Z,19.45
2023-02-11T14:44:43.939Z,19.46
2023-02-11T14:47:16.786Z,19.46
2023-02-11T14:49:49.934Z,19.46
2023-02-11T14:52:22.868Z,19.46
2023-02-11T14:54:55.838Z,19.47
2023-02-11T14:57:28.926Z,19.47
2023-02-11T15:00:01.982Z,19.47
2023-02-11T15:02:35.080Z,19.47
2023-02-11T15:05:07.942Z,19.47
2023-02-11T15:07:41.035Z,19.47
2023-02-11T15:10:13.900Z,19.48
2023-02-11T15:12:46.940Z,19.48
2023-02-11T15:15:20.024Z,19.48
2023-02-11T15:17:53.006Z,19.48
2023-02-11T15:20:25.925Z,19.48
2023-02-11T15:22:59.129Z,19.48
2023-02-11T15:25:34.134Z,19.49
2023-02-11T15:28:05.046Z,19.49
2023-02-11T15:30:37.896Z,19.49
2023-02-11T15:33:10.886Z,19.50
2023-02-11T15:35:43.881Z,19.50
2023-02-11T15:38:16.873Z,19.50
2023-02-11T15:40:50.519Z,19.51
2023-02-11T15:43:22.879Z,19.51
2023-02-11T15:45:56.048Z,19.51
2023-02-11T15:48:29.196Z,19.51
2023-02-11T15:51:02.032Z,19.51
2023-02-11T15:53:38.938Z,19.52
2023-02-11T15:56:11.947Z,19.52
2023-02-11T15:58:45.069Z,19.52
2023-02-11T16:01:18.019Z,19.52
2023-02-11T16:03:51.399Z,19.53
2023-02-11T16:06:23.976Z,19.53
2023-02-11T16:08:57.105Z,19.53
2023-02-11T16:11:30.083Z,19.53
2023-02-11T16:14:05.814Z,19.53
2023-02-11T16:16:36.290Z,19.53
2023-02-11T16:19:08.978Z,19.53
2023-02-11T16:21:42.271Z,19.53
2023-02-11T16:24:15.105Z,19.54
2023-02-11T16:26:49.241Z,19.54
2023-02-11T16:29:22.132Z,19.54
2023-02-11T16:31:55.384Z,19.54
2023-02-11T16:34:28.325Z,19.54
2023-02-11T16:37:01.153Z,19.53
2023-02-11T16:39:34.068Z,19.52
2023-02-11T16:42:07.670Z,19.51
2023-02-11T16:44:40.178Z,19.50
2023-02-11T16:47:12.995Z,19.49
2023-02-11T16:49:46.845Z,19.49
2023-02-11T16:52:20.168Z,19.48
2023-02-11T16:54:53.346Z,19.47
2023-02-11T16:57:29.891Z,19.46
2023-02-11T17:00:00.244Z,19.46
2023-02-11T17:02:34.014Z,19.45
2023-02-11T17:05:07.273Z,19.45
2023-02-11T17:07:40.182Z,19.45
2023-02-11T17:10:13.041Z,19.44
2023-02-11T17:12:46.892Z,19.44
2023-02-11T17:15:20.427Z,19.44
2023-02-11T17:17:53.051Z,19.45
2023-02-11T17:20:26.103Z,19.45
2023-02-11T17:22:59.460Z,19.45
2023-02-11T17:25:33.207Z,19.45
2023-02-11T17:28:06.377Z,19.45
2023-02-11T17:30:39.379Z,19.46
2023-02-11T17:33:13.605Z,19.46
2023-02-11T17:35:47.398Z,19.46
2023-02-11T17:38:20.475Z,19.46
2023-02-11T17:40:54.038Z,19.47
2023-02-11T17:43:27.561Z,19.47
2023-02-11T17:46:01.428Z,19.48
2023-02-11T17:48:34.236Z,19.48
2023-02-11T17:51:10.909Z,19.48
2023-02-11T17:53:44.227Z,19.49
2023-02-11T17:56:18.004Z,19.49
2023-02-11T17:58:51.239Z,19.50
2023-02-11T18:01:24.665Z,19.51
2023-02-11T18:03:58.081Z,19.51
2023-02-11T18:06:31.550Z,19.52
2023-02-11T18:09:05.123Z,19.52
2023-02-11T18:11:38.102Z,19.53
2023-02-11T18:14:11.475Z,19.53
2023-02-11T18:16:44.231Z,19.54
2023-02-11T18:19:17.226Z,19.54
2023-02-11T18:21:50.389Z,19.55
2023-02-11T18:24:23.528Z,19.55
2023-02-11T18:26:57.141Z,19.55
2023-02-11T18:29:30.147Z,19.56
2023-02-11T18:32:03.263Z,19.56
2023-02-11T18:34:36.767Z,19.57
2023-02-11T18:37:10.380Z,19.57
2023-02-11T18:39:43.139Z,19.57
2023-02-11T18:42:16.467Z,19.58
2023-02-11T18:44:49.211Z,19.58
2023-02-11T18:47:22.575Z,19.58
2023-02-11T18:49:55.492Z,19.59
2023-02-11T18:52:28.282Z,19.59
2023-02-11T18:55:01.306Z,19.59
2023-02-11T18:57:34.633Z,19.59
2023-02-11T19:00:08.546Z,19.59
2023-02-11T19:02:41.197Z,19.60
2023-02-11T19:05:14.438Z,19.60
2023-02-11T19:07:47.570Z,19.60
2023-02-11T19:10:21.590Z,19.60
2023-02-11T19:12:54.195Z,19.60
2023-02-11T19:15:27.438Z,19.60
2023-02-11T19:18:00.542Z,19.60
2023-02-11T19:20:33.498Z,19.60
2023-02-11T19:23:06.691Z,19.61
2023-02-11T19:25:40.232Z,19.61
2023-02-11T19:28:13.384Z,19.61
2023-02-11T19:30:46.668Z,19.61
2023-02-11T19:33:19.365Z,19.61
2023-02-11T19:35:52.866Z,19.61
2023-02-11T19:38:25.231Z,19.61
2023-02-11T19:40:58.789Z,19.62
2023-02-11T19:43:32.388Z,19.62
2023-02-11T19:46:05.353Z,19.62
2023-02-11T19:48:38.629Z,19.62
2023-02-11T19:51:13.217Z,19.62
2023-02-11T19:53:44.408Z,19.63
2023-02-11T19:56:19.203Z,19.63
2023-02-11T19:58:50.469Z,19.63
2023-02-11T20:01:23.487Z,19.63
2023-02-11T20:03:56.538Z,19.63
2023-02-11T20:06:29.695Z,19.63
2023-02-11T20:09:02.494Z,19.63
2023-02-11T20:11:35.748Z,19.64
2023-02-11T20:14:09.651Z,19.65
2023-02-11T20:16:48.502Z,19.65
2023-02-11T20:19:16.329Z,19.65
2023-02-11T20:21:49.758Z,19.66
2023-02-11T20:24:24.210Z,19.66
2023-02-11T20:26:57.653Z,19.66
2023-02-11T20:29:30.331Z,19.67
2023-02-11T20:32:03.984Z,19.67
2023-02-11T20:34:37.879Z,19.67
2023-02-11T20:37:11.304Z,19.67
2023-02-11T20:39:44.637Z,19.67
2023-02-11T20:42:17.344Z,19.67
2023-02-11T20:44:50.358Z,19.68
2023-02-11T20:47:23.587Z,19.68
2023-02-11T20:49:56.982Z,19.68
2023-02-11T20:52:30.475Z,19.68
2023-02-11T20:55:03.652Z,19.69
2023-02-11T20:57:36.668Z,19.70
2023-02-11T21:00:09.373Z,19.70
2023-02-11T21:02:42.549Z,19.71
2023-02-11T21:05:15.545Z,19.71
2023-02-11T21:07:48.682Z,19.71
2023-02-11T21:10:21.481Z,19.72
2023-02-11T21:12:54.557Z,19.73
2023-02-11T21:15:27.514Z,19.74
2023-02-11T21:18:00.656Z,19.74
2023-02-11T21:20:33.538Z,19.75
2023-02-11T21:23:06.854Z,19.75
2023-02-11T21:25:40.691Z,19.76
2023-02-11T21:28:13.750Z,19.76
2023-02-11T21:30:46.621Z,19.76
2023-02-11T21:33:19.581Z,19.76
2023-02-11T21:35:52.803Z,19.77
2023-02-11T21:38:25.722Z,19.78
2023-02-11T21:40:58.433Z,19.78
2023-02-11T21:43:31.790Z,19.78
2023-02-11T21:46:04.613Z,19.78
2023-02-11T21:48:37.759Z,19.78
2023-02-11T21:51:10.465Z,19.78
2023-02-11T21:53:43.866Z,19.78
2023-02-11T21:56:16.882Z,19.77
2023-02-11T21:58:50.441Z,19.77
2023-02-11T22:01:23.555Z,19.77
2023-02-11T22:03:56.606Z,19.78
2023-02-11T22:06:29.461Z,19.78
2023-02-11T22:09:02.815Z,19.78
2023-02-11T22:11:35.816Z,19.78
2023-02-11T22:14:08.731Z,19.78
2023-02-11T22:16:41.661Z,19.78
2023-02-11T22:19:14.585Z,19.78
2023-02-11T22:21:50.842Z,19.77
2023-02-11T22:24:23.496Z,19.76
2023-02-11T22:26:56.502Z,19.76
2023-02-11T22:29:29.487Z,19.75
2023-02-11T22:34:45.952Z,19.74
2023-02-11T22:37:19.832Z,19.73
2023-02-11T22:39:53.093Z,19.72
2023-02-11T22:42:26.942Z,19.71
2023-02-11T22:45:00.664Z,19.71
2023-02-11T22:47:33.926Z,19.70
2023-02-11T22:50:06.718Z,19.69
2023-02-11T22:52:39.883Z,19.69
2023-02-11T22:55:12.959Z,19.68
2023-02-11T22:57:46.724Z,19.67
2023-02-11T23:00:19.878Z,19.66
2023-02-11T23:02:52.623Z,19.66
2023-02-11T23:05:25.702Z,19.65
2023-02-11T23:07:58.909Z,19.64
2023-02-11T23:10:31.749Z,19.63
2023-02-11T23:13:04.986Z,19.63
2023-02-11T23:15:38.950Z,19.62
2023-02-11T23:18:11.735Z,19.61
2023-02-11T23:20:45.969Z,19.60
2023-02-11T23:23:22.766Z,19.59
2023-02-11T23:25:56.191Z,19.58
2023-02-11T23:28:28.985Z,19.58
2023-02-11T23:31:02.015Z,19.57
2023-02-11T23:33:35.031Z,19.56
2023-02-11T23:36:08.699Z,19.56
2023-02-11T23:38:55.940Z,19.55
2023-02-11T23:41:28.983Z,19.54
2023-02-11T23:44:01.927Z,19.54
2023-02-11T23:46:35.134Z,19.53
2023-02-11T23:49:09.024Z,19.52
2023-02-11T23:51:41.919Z,19.51
2023-02-11T23:54:15.007Z,19.50
2023-02-11T23:56:47.740Z,19.50
2023-02-11T23:59:20.917Z,19.49
